Time;durP1;ratioP1;P1;durP2;ratioP2;P2;SDS_P1;SDS_P2;PMS_P1;PMS_P2;Temp;Humidity;BMP_temperature;BMP_pressure;BME280_temperature;BME280_humidity;BME280_pressure;Samples;Min_cycle;Max_cycle;Signal;HPM_P1;HPM_P2
2022/09/24 00:01:19;;;;;;;49.97;32.95;;;13.80;99.90;;;;;;5050784;28;20470;-73
2022/09/24 00:03:50;;;;;;;52.25;34.20;;;13.80;99.90;;;;;;5050222;28;20799;-73
2022/09/24 00:06:18;;;;;;;56.85;35.10;;;13.70;99.90;;;;;;5050428;28;20413;-73
2022/09/24 00:08:44;;;;;;;52.03;35.10;;;13.80;99.90;;;;;;5050283;28;20489;-73
2022/09/24 00:11:12;;;;;;;54.93;35.60;;;13.70;99.90;;;;;;5050022;28;20421;-73
2022/09/24 00:13:38;;;;;;;58.10;36.40;;;13.70;99.90;;;;;;5050081;28;20818;-74
2022/09/24 00:16:09;;;;;;;53.55;35.88;;;13.70;99.90;;;;;;5032435;28;20737;-73
2022/09/24 00:18:35;;;;;;;58.60;36.28;;;13.70;99.90;;;;;;5062727;28;20411;-73
2022/09/24 00:21:20;;;;;;;57.22;35.67;;;13.70;99.90;;;;;;5032742;28;20940;-73
2022/09/24 00:23:51;;;;;;;59.72;37.15;;;13.70;99.90;;;;;;5049957;28;20771;-73
2022/09/24 00:29:02;;;;;;;60.33;37.47;;;13.70;99.90;;;;;;5050014;28;20409;-73
2022/09/24 00:31:28;;;;;;;60.03;37.20;;;13.70;99.90;;;;;;5049605;28;20519;-73
2022/09/24 00:33:53;;;;;;;59.80;36.83;;;13.70;99.90;;;;;;5050379;28;20503;-75
2022/09/24 00:36:21;;;;;;;60.72;38.53;;;13.70;99.90;;;;;;5050101;28;20799;-74
2022/09/24 00:38:55;;;;;;;63.25;38.55;;;13.70;99.90;;;;;;5054711;28;20465;-74
2022/09/24 00:41:24;;;;;;;61.70;38.43;;;13.70;99.90;;;;;;5054657;28;20418;-73
2022/09/24 00:43:50;;;;;;;65.75;39.45;;;13.70;99.90;;;;;;5049649;28;20445;-74
2022/09/24 00:46:26;;;;;;;63.50;39.15;;;13.70;99.90;;;;;;5048314;28;20452;-74
2022/09/24 00:49:00;;;;;;;67.85;39.35;;;13.70;99.90;;;;;;5031871;28;20423;-73
2022/09/24 00:51:27;;;;;;;70.03;40.47;;;13.70;99.90;;;;;;5031521;28;21125;-74
2022/09/24 00:53:58;;;;;;;65.68;40.28;;;13.70;99.90;;;;;;5049567;28;20409;-74
2022/09/24 00:56:25;;;;;;;63.10;39.58;;;13.70;99.90;;;;;;5049822;28;20405;-74
2022/09/24 00:58:55;;;;;;;63.97;40.40;;;13.70;99.90;;;;;;5031821;28;20409;-73
2022/09/24 01:01:23;;;;;;;67.80;40.50;;;13.70;99.90;;;;;;5049304;28;20512;-74
2022/09/24 01:03:52;;;;;;;69.15;39.92;;;13.70;99.90;;;;;;5049178;28;20500;-74
2022/09/24 01:06:17;;;;;;;70.37;41.67;;;13.70;99.90;;;;;;5048750;28;20410;-74
2022/09/24 01:08:44;;;;;;;66.90;40.83;;;13.70;99.90;;;;;;5049257;28;20830;-74
2022/09/24 01:11:20;;;;;;;69.30;41.47;;;13.70;99.90;;;;;;5049284;28;20498;-74
2022/09/24 01:14:14;;;;;;;70.85;41.75;;;13.70;99.90;;;;;;5049262;28;20985;-74
2022/09/24 01:17:07;;;;;;;65.88;41.45;;;13.70;99.90;;;;;;5049020;28;20504;-74
2022/09/24 01:19:54;;;;;;;72.32;42.47;;;13.70;99.90;;;;;;5049022;28;20417;-74
2022/09/24 01:22:45;;;;;;;69.78;41.22;;;13.70;99.90;;;;;;5049106;28;20422;-74
2022/09/24 01:25:36;;;;;;;70.68;42.97;;;13.70;99.90;;;;;;5047471;28;20537;-74
2022/09/24 01:28:12;;;;;;;72.57;43.97;;;13.70;99.90;;;;;;5047903;28;20501;-74
2022/09/24 01:30:40;;;;;;;77.43;43.97;;;13.70;99.90;;;;;;5031193;28;20410;-74
2022/09/24 01:33:12;;;;;;;72.75;44.22;;;13.70;99.90;;;;;;5049116;28;20467;-74
2022/09/24 01:35:44;;;;;;;76.68;45.25;;;13.70;99.90;;;;;;5031342;28;20487;-74
2022/09/24 01:38:20;;;;;;;76.45;44.88;;;13.80;99.90;;;;;;5036006;28;20423;-74
2022/09/24 01:40:47;;;;;;;76.30;44.92;;;13.80;99.90;;;;;;5055431;28;20417;-75
2022/09/24 01:43:15;;;;;;;75.10;45.05;;;13.70;99.90;;;;;;5047954;28;20405;-74
2022/09/24 01:45:41;;;;;;;74.05;45.03;;;13.80;99.90;;;;;;5048127;28;20764;-74
2022/09/24 01:48:08;;;;;;;80.13;46.22;;;13.80;99.90;;;;;;5030435;28;20418;-75
2022/09/24 01:50:41;;;;;;;78.95;46.05;;;13.70;99.90;;;;;;5030003;28;20424;-74
2022/09/24 01:53:18;;;;;;;81.50;46.58;;;13.80;99.90;;;;;;5048081;28;20926;-74
2022/09/24 01:55:49;;;;;;;85.33;48.03;;;13.80;99.90;;;;;;5047995;28;20413;-73
2022/09/24 01:58:44;;;;;;;89.47;49.38;;;13.80;99.90;;;;;;5046933;28;20965;-74
2022/09/24 02:01:16;;;;;;;94.25;50.55;;;13.80;99.90;;;;;;5043112;28;20497;-74
2022/09/24 02:03:47;;;;;;;86.85;51.88;;;13.80;99.90;;;;;;5048337;28;20406;-74
2022/09/24 02:06:38;;;;;;;92.80;52.53;;;13.80;99.90;;;;;;5048274;28;20401;-74
2022/09/24 02:09:04;;;;;;;92.88;52.30;;;13.80;99.90;;;;;;5047628;28;20425;-74
2022/09/24 02:11:33;;;;;;;96.53;53.33;;;13.80;99.90;;;;;;5066510;28;20551;-74
2022/09/24 02:14:13;;;;;;;96.70;52.93;;;13.70;99.90;;;;;;5055362;28;20907;-74
2022/09/24 02:16:46;;;;;;;103.75;54.10;;;13.80;99.90;;;;;;5047914;28;20899;-74
2022/09/24 02:19:19;;;;;;;102.33;54.93;;;13.70;99.90;;;;;;5047993;28;20408;-74
2022/09/24 02:21:46;;;;;;;103.10;54.67;;;13.80;99.90;;;;;;5047959;28;20983;-74
2022/09/24 02:24:19;;;;;;;100.57;54.17;;;13.70;99.90;;;;;;5047690;28;20466;-74
2022/09/24 02:26:46;;;;;;;100.20;54.33;;;13.80;99.90;;;;;;5047705;28;20417;-74
2022/09/24 02:29:12;;;;;;;102.72;55.08;;;13.80;99.90;;;;;;5047588;28;20767;-74
2022/09/24 02:31:41;;;;;;;106.72;55.65;;;13.80;99.90;;;;;;5046704;28;20437;-74
2022/09/24 02:34:21;;;;;;;108.75;56.08;;;13.80;99.90;;;;;;5047737;28;20405;-75
2022/09/24 02:36:52;;;;;;;105.55;56.80;;;13.80;99.90;;;;;;5047408;28;20420;-74
2022/09/24 02:39:18;;;;;;;117.93;56.78;;;13.80;99.90;;;;;;5035070;28;20405;-74
2022/09/24 02:41:48;;;;;;;103.40;56.70;;;13.80;99.90;;;;;;5040435;28;20409;-74
2022/09/24 02:44:15;;;;;;;109.13;56.63;;;13.80;99.90;;;;;;5047465;28;20551;-74
2022/09/24 02:46:41;;;;;;;116.15;57.70;;;13.80;99.90;;;;;;5047598;28;20934;-74
2022/09/24 02:49:08;;;;;;;109.30;57.72;;;13.80;99.90;;;;;;5048089;28;20412;-74
2022/09/24 02:51:35;;;;;;;116.95;58.17;;;13.80;99.90;;;;;;5047116;28;20436;-74
2022/09/24 02:54:00;;;;;;;110.32;57.13;;;13.80;99.90;;;;;;5047319;28;20516;-75
2022/09/24 02:56:27;;;;;;;112.47;57.10;;;13.80;99.90;;;;;;5047703;28;20520;-74
2022/09/24 02:58:53;;;;;;;123.32;59.58;;;13.80;99.90;;;;;;5047236;28;20401;-74
2022/09/24 03:01:18;;;;;;;120.82;58.35;;;13.80;99.90;;;;;;5040669;28;20421;-74
2022/09/24 03:03:44;;;;;;;119.43;58.37;;;13.80;99.90;;;;;;5047042;28;20968;-74
2022/09/24 03:06:13;;;;;;;119.03;57.78;;;13.80;99.90;;;;;;5047608;28;20417;-74
2022/09/24 03:08:41;;;;;;;114.25;56.60;;;13.80;99.90;;;;;;5046759;28;20846;-74
2022/09/24 03:11:07;;;;;;;112.97;56.63;;;13.80;99.90;;;;;;5047472;28;20429;-74
2022/09/24 03:13:33;;;;;;;109.47;55.45;;;13.90;99.90;;;;;;5047250;28;20488;-74
2022/09/24 03:15:59;;;;;;;105.07;56.67;;;13.90;99.90;;;;;;5047061;28;20481;-74
2022/09/24 03:18:24;;;;;;;110.55;55.67;;;13.90;99.90;;;;;;5046601;28;20417;-75
2022/09/24 03:20:58;;;;;;;107.67;55.63;;;13.90;99.90;;;;;;5029715;28;20413;-74
2022/09/24 03:23:24;;;;;;;108.00;54.13;;;13.90;99.90;;;;;;5046842;28;20413;-74
2022/09/24 03:25:49;;;;;;;113.43;55.57;;;13.90;99.90;;;;;;5059189;28;20508;-74
2022/09/24 03:28:16;;;;;;;108.25;55.08;;;13.90;99.90;;;;;;5046871;28;20409;-74
2022/09/24 03:31:01;;;;;;;102.95;53.78;;;13.90;99.90;;;;;;5029253;28;20413;-74
2022/09/24 03:33:28;;;;;;;105.72;54.53;;;13.90;99.90;;;;;;5028995;28;20420;-74
2022/09/24 03:36:02;;;;;;;108.18;54.80;;;13.90;99.90;;;;;;5047251;28;20463;-74
2022/09/24 03:38:28;;;;;;;115.37;53.60;;;14.00;99.90;;;;;;5046565;28;20402;-74
2022/09/24 03:40:55;;;;;;;106.80;53.72;;;13.90;99.90;;;;;;5057619;28;20404;-75
2022/09/24 03:43:21;;;;;;;104.05;53.08;;;14.00;99.90;;;;;;5042674;28;20413;-74
2022/09/24 03:45:48;;;;;;;110.90;54.85;;;14.00;99.90;;;;;;5059556;28;20412;-74
2022/09/24 03:48:17;;;;;;;106.53;53.72;;;13.90;99.90;;;;;;5042245;28;20426;-74
2022/09/24 03:50:43;;;;;;;107.80;54.05;;;14.00;99.90;;;;;;5056323;28;20460;-74
2022/09/24 03:53:09;;;;;;;111.35;53.85;;;14.00;99.90;;;;;;5029608;28;20977;-75
2022/09/24 03:55:40;;;;;;;111.07;53.88;;;14.00;99.90;;;;;;5028936;28;20462;-74
2022/09/24 03:58:05;;;;;;;106.38;53.22;;;14.00;99.90;;;;;;5047297;28;20772;-73
2022/09/24 04:00:31;;;;;;;112.73;53.60;;;13.90;99.90;;;;;;5052656;28;20430;-74
2022/09/24 04:02:57;;;;;;;111.43;54.63;;;14.00;99.90;;;;;;5054002;28;20432;-73
2022/09/24 04:05:22;;;;;;;111.70;53.38;;;14.00;99.90;;;;;;5047146;28;20452;-73
2022/09/24 04:07:48;;;;;;;116.83;53.13;;;14.00;99.90;;;;;;5049872;28;20422;-74
2022/09/24 04:10:14;;;;;;;105.30;51.28;;;13.90;99.90;;;;;;5058143;28;21153;-75
2022/09/24 04:12:39;;;;;;;105.43;50.17;;;14.00;99.90;;;;;;5056172;28;20907;-74
2022/09/24 04:15:05;;;;;;;112.57;53.15;;;13.90;99.90;;;;;;5054626;28;20465;-74
2022/09/24 04:17:31;;;;;;;109.50;50.77;;;14.00;99.90;;;;;;5071358;28;20476;-75
2022/09/24 04:19:57;;;;;;;108.20;51.35;;;14.00;99.90;;;;;;5061031;28;20475;-74
2022/09/24 04:22:24;;;;;;;101.28;48.33;;;13.90;99.90;;;;;;5062778;28;20405;-74
2022/09/24 04:24:50;;;;;;;96.37;47.67;;;13.90;99.90;;;;;;5058324;28;20416;-74
2022/09/24 04:27:15;;;;;;;104.97;47.35;;;13.90;99.90;;;;;;5035534;28;20427;-74
2022/09/24 04:29:41;;;;;;;106.47;48.57;;;14.00;99.90;;;;;;5052996;28;20417;-74
2022/09/24 04:32:07;;;;;;;97.82;46.55;;;14.00;99.90;;;;;;5053247;28;20811;-74
2022/09/24 04:34:32;;;;;;;100.00;45.90;;;14.00;99.90;;;;;;5050596;28;20413;-74
2022/09/24 04:36:58;;;;;;;86.40;43.50;;;14.00;99.90;;;;;;5033674;28;20967;-74
2022/09/24 04:39:26;;;;;;;91.72;44.33;;;13.90;99.90;;;;;;5050325;28;20394;-74
2022/09/24 04:41:55;;;;;;;92.43;43.47;;;14.00;99.90;;;;;;5015689;28;20518;-75
2022/09/24 04:44:22;;;;;;;84.80;42.08;;;14.00;99.90;;;;;;5033116;28;20963;-74
2022/09/24 04:46:48;;;;;;;84.50;41.43;;;13.90;99.90;;;;;;5050650;28;20416;-75
2022/09/24 04:49:13;;;;;;;83.32;39.38;;;13.90;99.90;;;;;;5052825;28;20401;-74
2022/09/24 04:51:39;;;;;;;88.25;40.45;;;14.00;99.90;;;;;;5053269;28;20460;-74
2022/09/24 04:54:05;;;;;;;88.97;39.47;;;14.00;99.90;;;;;;5053393;28;20540;-75
2022/09/24 04:56:31;;;;;;;89.25;39.75;;;13.90;99.90;;;;;;5047975;28;20407;-74
2022/09/24 04:58:57;;;;;;;71.90;36.10;;;13.90;99.90;;;;;;5054875;28;20427;-74
2022/09/24 05:01:23;;;;;;;78.72;35.53;;;13.90;99.90;;;;;;5059264;28;20405;-73
2022/09/24 05:03:49;;;;;;;73.20;34.97;;;14.00;99.90;;;;;;5049792;28;20404;-74
2022/09/24 05:06:15;;;;;;;58.55;28.85;;;14.00;99.90;;;;;;5050244;28;20402;-74
2022/09/24 05:08:40;;;;;;;60.22;29.27;;;14.00;99.90;;;;;;5049988;28;20895;-74
2022/09/24 05:11:06;;;;;;;38.17;19.20;;;14.00;99.90;;;;;;5031965;28;20441;-75
2022/09/24 05:13:32;;;;;;;46.00;20.40;;;14.00;99.90;;;;;;5048828;28;20402;-74
2022/09/24 05:15:59;;;;;;;49.85;22.45;;;14.00;99.90;;;;;;5048409;28;20414;-74
2022/09/24 05:18:26;;;;;;;58.00;27.52;;;14.00;99.90;;;;;;5049366;28;20409;-74
2022/09/24 05:20:52;;;;;;;41.67;19.35;;;14.00;99.90;;;;;;5048924;28;20437;-74
2022/09/24 05:23:18;;;;;;;24.50;8.77;;;14.00;99.90;;;;;;5031267;28;20934;-74
2022/09/24 05:28:27;;;;;;;15.40;5.03;;;14.10;99.90;;;;;;5048698;28;20421;-74
2022/09/24 05:30:57;;;;;;;12.23;2.20;;;14.00;99.90;;;;;;5048470;28;20425;-74
2022/09/24 05:33:23;;;;;;;12.10;2.07;;;14.00;99.90;;;;;;5049111;28;20398;-75
2022/09/24 05:35:56;;;;;;;13.65;1.80;;;14.00;99.90;;;;;;5061677;28;20420;-75
2022/09/24 05:38:21;;;;;;;13.32;1.60;;;14.00;99.90;;;;;;5030929;28;20966;-74
2022/09/24 05:40:47;;;;;;;15.03;1.80;;;14.00;99.90;;;;;;5049002;28;20433;-74
2022/09/24 05:43:13;;;;;;;11.10;1.67;;;14.10;99.90;;;;;;5048899;28;20460;-74
2022/09/24 05:45:39;;;;;;;12.98;1.50;;;14.10;99.90;;;;;;5048301;28;20405;-74
2022/09/24 05:48:04;;;;;;;9.93;2.00;;;14.10;99.90;;;;;;5047131;28;20422;-74
2022/09/24 05:50:31;;;;;;;14.80;1.80;;;14.10;99.90;;;;;;5016886;28;20402;-73
2022/09/24 05:52:57;;;;;;;10.40;1.52;;;14.10;99.90;;;;;;5048447;28;20511;-74
2022/09/24 05:55:23;;;;;;;12.50;1.73;;;14.10;99.90;;;;;;5048165;28;20926;-74
2022/09/24 05:57:49;;;;;;;9.38;1.35;;;14.10;99.90;;;;;;5048247;28;20402;-74
2022/09/24 06:00:15;;;;;;;8.32;1.08;;;14.10;99.90;;;;;;5047969;28;20497;-73
2022/09/24 06:02:41;;;;;;;13.07;2.03;;;14.10;99.90;;;;;;5030890;28;20505;-74
2022/09/24 06:05:07;;;;;;;11.57;1.40;;;14.10;99.90;;;;;;5047998;28;20405;-75
2022/09/24 06:07:32;;;;;;;12.10;1.42;;;14.10;99.90;;;;;;5048330;28;20401;-74
2022/09/24 06:09:59;;;;;;;11.60;1.63;;;14.10;99.90;;;;;;5030543;28;20412;-74
2022/09/24 06:12:25;;;;;;;9.48;1.50;;;14.10;99.90;;;;;;5048346;28;20452;-74
2022/09/24 06:14:52;;;;;;;11.13;1.67;;;14.20;99.90;;;;;;5048059;28;20558;-74
2022/09/24 06:17:19;;;;;;;12.20;1.88;;;14.10;99.90;;;;;;5048282;28;20854;-74
2022/09/24 06:19:46;;;;;;;9.73;1.93;;;14.20;99.90;;;;;;5047799;28;21068;-74
2022/09/24 06:22:12;;;;;;;10.20;1.33;;;14.20;99.90;;;;;;5048249;28;20401;-74
2022/09/24 06:24:38;;;;;;;17.30;2.10;;;14.20;99.90;;;;;;5047948;28;20409;-74
2022/09/24 06:27:04;;;;;;;13.82;2.30;;;14.20;99.90;;;;;;5049840;28;20410;-75
2022/09/24 06:29:30;;;;;;;9.23;1.40;;;14.20;99.90;;;;;;5057303;28;20398;-74
2022/09/24 06:31:56;;;;;;;9.52;1.30;;;14.20;99.90;;;;;;5047829;28;20516;-74
2022/09/24 06:34:22;;;;;;;14.88;2.08;;;14.20;99.90;;;;;;5048098;28;20680;-75
2022/09/24 06:36:47;;;;;;;14.03;1.53;;;14.20;99.90;;;;;;5029788;28;20982;-75
2022/09/24 06:39:13;;;;;;;12.85;1.63;;;14.20;99.90;;;;;;5046863;28;20417;-75
2022/09/24 06:41:38;;;;;;;9.43;1.37;;;14.20;99.90;;;;;;5047672;28;20920;-74
2022/09/24 06:44:04;;;;;;;9.98;1.48;;;14.20;99.90;;;;;;5047156;28;20489;-75
2022/09/24 06:46:30;;;;;;;11.30;1.80;;;14.20;99.90;;;;;;5029127;28;20779;-74
2022/09/24 06:48:55;;;;;;;8.30;1.15;;;14.20;99.90;;;;;;5046918;28;20410;-75
2022/09/24 06:51:21;;;;;;;8.20;1.30;;;14.20;99.90;;;;;;5029544;28;20436;-74
2022/09/24 06:53:51;;;;;;;10.23;1.60;;;14.20;99.90;;;;;;5046992;28;20398;-75
2022/09/24 06:56:17;;;;;;;9.85;1.27;;;14.20;99.90;;;;;;5040389;28;20482;-75
2022/09/24 06:58:42;;;;;;;8.25;1.00;;;14.20;99.90;;;;;;5028363;28;20417;-75
2022/09/24 07:01:08;;;;;;;7.60;0.90;;;14.20;99.90;;;;;;5028062;28;20405;-75
2022/09/24 07:03:34;;;;;;;7.78;1.40;;;14.20;99.90;;;;;;5046406;28;20401;-75
2022/09/24 07:06:02;;;;;;;8.40;0.90;;;14.20;99.90;;;;;;5046595;28;21054;-74
2022/09/24 07:08:28;;;;;;;6.60;0.70;;;14.20;99.90;;;;;;5027702;28;20738;-75
2022/09/24 07:10:53;;;;;;;9.97;1.20;;;14.30;99.90;;;;;;5027625;28;20443;-74
2022/09/24 07:13:20;;;;;;;7.47;1.25;;;14.30;99.90;;;;;;5045469;28;20459;-74
2022/09/24 07:15:47;;;;;;;8.35;0.98;;;14.30;99.90;;;;;;5044948;28;20413;-74
2022/09/24 07:18:13;;;;;;;10.80;1.58;;;14.40;99.90;;;;;;5046074;28;20412;-76
2022/09/24 07:20:39;;;;;;;7.35;1.10;;;14.40;99.90;;;;;;5049718;28;20397;-75
2022/09/24 07:23:06;;;;;;;10.00;1.30;;;14.40;99.90;;;;;;5049216;28;20417;-75
2022/09/24 07:25:32;;;;;;;10.13;1.85;;;14.40;99.90;;;;;;5043411;28;20422;-75
2022/09/24 07:28:08;;;;;;;10.73;1.83;;;14.50;99.90;;;;;;5027514;28;20930;-75
2022/09/24 07:30:35;;;;;;;8.43;1.00;;;14.50;99.90;;;;;;5044936;28;20494;-76
2022/09/24 07:33:00;;;;;;;8.95;1.40;;;14.50;99.90;;;;;;5029464;28;20796;-75
2022/09/24 07:35:27;;;;;;;14.70;2.30;;;14.50;99.90;;;;;;5060504;28;20403;-74
2022/09/24 07:38:01;;;;;;;9.63;1.70;;;14.50;99.90;;;;;;5027730;28;20411;-73
2022/09/24 07:40:28;;;;;;;8.07;1.30;;;14.50;99.90;;;;;;5052440;28;20872;-73
2022/09/24 07:42:54;;;;;;;10.23;1.70;;;14.50;99.90;;;;;;5047334;28;20484;-73
2022/09/24 07:45:21;;;;;;;8.80;1.40;;;14.50;99.90;;;;;;5046352;28;20488;-74
2022/09/24 07:47:47;;;;;;;12.82;1.92;;;14.50;99.90;;;;;;5046570;28;20401;-75
2022/09/24 07:50:13;;;;;;;14.47;1.70;;;14.50;99.90;;;;;;5046885;28;20444;-74
2022/09/24 07:52:39;;;;;;;10.43;1.75;;;14.50;99.90;;;;;;5047231;28;20433;-74
2022/09/24 07:55:05;;;;;;;12.23;1.83;;;14.60;99.90;;;;;;5029741;28;20420;-74
2022/09/24 07:57:31;;;;;;;9.68;1.58;;;14.50;99.90;;;;;;5051219;28;20406;-74
2022/09/24 07:59:56;;;;;;;10.23;1.53;;;14.60;99.90;;;;;;5051008;28;20407;-74
2022/09/24 08:02:23;;;;;;;12.77;1.70;;;14.60;99.90;;;;;;5033600;28;20432;-75
2022/09/24 08:04:49;;;;;;;12.77;1.70;;;14.60;99.90;;;;;;5050618;28;20498;-74
2022/09/24 08:07:15;;;;;;;13.73;1.50;;;14.60;99.90;;;;;;5030185;28;20524;-74
2022/09/24 08:09:41;;;;;;;11.15;1.60;;;14.70;99.90;;;;;;5050025;28;20429;-75
2022/09/24 08:12:07;;;;;;;7.53;1.13;;;14.80;99.90;;;;;;5049839;28;20516;-74
2022/09/24 08:14:33;;;;;;;11.20;1.20;;;14.80;99.90;;;;;;5050032;28;20618;-75
2022/09/24 08:16:59;;;;;;;8.68;1.38;;;14.90;99.90;;;;;;5049657;28;20455;-75
2022/09/24 08:19:27;;;;;;;11.95;1.80;;;14.80;99.90;;;;;;5050238;28;20405;-75
2022/09/24 08:21:52;;;;;;;10.87;1.60;;;14.90;99.90;;;;;;5031828;28;20472;-74
2022/09/24 08:24:18;;;;;;;8.65;1.20;;;14.90;99.90;;;;;;5050079;28;20482;-74
2022/09/24 08:26:43;;;;;;;8.80;1.10;;;15.00;99.90;;;;;;5059492;28;20405;-73
2022/09/24 08:29:09;;;;;;;8.63;1.60;;;15.10;99.90;;;;;;5049780;28;20459;-74
2022/09/24 08:31:35;;;;;;;8.00;1.03;;;15.10;99.90;;;;;;5057346;28;21183;-74
2022/09/24 08:34:01;;;;;;;9.00;1.10;;;15.20;99.90;;;;;;5031707;28;20416;-74
2022/09/24 08:36:26;;;;;;;9.55;1.08;;;15.30;99.90;;;;;;5048567;28;20412;-75
2022/09/24 08:38:55;;;;;;;8.35;1.00;;;15.30;99.90;;;;;;5049522;28;20508;-75
2022/09/24 08:41:36;;;;;;;8.40;1.10;;;15.20;99.90;;;;;;5048941;28;20432;-74
2022/09/24 08:44:13;;;;;;;9.40;0.82;;;15.10;99.90;;;;;;5045810;28;20451;-74
2022/09/24 08:49:44;;;;;;;7.68;1.08;;;14.90;99.90;;;;;;5050244;28;20415;-74
2022/09/24 08:52:41;;;;;;;9.43;1.20;;;14.90;99.90;;;;;;5055561;28;20441;-74
2022/09/24 08:55:16;;;;;;;7.13;1.20;;;14.90;99.90;;;;;;5040041;28;20414;-74
2022/09/24 08:58:16;;;;;;;10.00;1.20;;;14.90;99.90;;;;;;5047745;28;20437;-74
2022/09/24 09:00:55;;;;;;;12.85;1.30;;;15.00;99.90;;;;;;5031683;28;20449;-74
2022/09/24 09:03:44;;;;;;;10.27;1.45;;;15.00;99.90;;;;;;5048063;28;20421;-75
2022/09/24 09:06:28;;;;;;;7.68;1.40;;;15.10;99.90;;;;;;5044645;28;20509;-75
2022/09/24 09:09:08;;;;;;;11.60;1.15;;;15.10;99.90;;;;;;5033700;28;20772;-75
2022/09/24 09:11:36;;;;;;;8.68;1.13;;;15.10;99.90;;;;;;5036442;28;20428;-75
2022/09/24 09:14:29;;;;;;;8.45;1.00;;;15.10;99.90;;;;;;5031110;28;20427;-75
2022/09/24 09:17:03;;;;;;;11.20;1.55;;;15.10;99.90;;;;;;5049735;28;20414;-74
2022/09/24 09:19:33;;;;;;;10.23;1.60;;;15.00;99.90;;;;;;5048983;28;20471;-75
2022/09/24 09:22:12;;;;;;;7.72;0.90;;;15.10;99.90;;;;;;5047237;28;20426;-75
2022/09/24 09:24:48;;;;;;;11.10;1.40;;;15.00;99.90;;;;;;5036723;28;20453;-74
2022/09/24 09:27:16;;;;;;;10.07;1.38;;;15.00;99.90;;;;;;5054483;28;20776;-75
2022/09/24 09:29:48;;;;;;;7.78;1.08;;;15.00;99.90;;;;;;5048018;28;20931;-75
2022/09/24 09:32:27;;;;;;;9.93;1.50;;;15.00;99.90;;;;;;5048892;28;20977;-75
2022/09/24 09:35:20;;;;;;;10.70;1.30;;;14.90;99.90;;;;;;5048960;28;20496;-75
2022/09/24 09:38:05;;;;;;;10.80;1.20;;;14.90;99.90;;;;;;5048001;28;20524;-75
2022/09/24 09:40:44;;;;;;;8.20;1.83;;;14.90;99.90;;;;;;5047411;28;20847;-74
2022/09/24 09:43:13;;;;;;;8.27;1.13;;;14.80;99.90;;;;;;5048871;28;20836;-75
2022/09/24 09:45:58;;;;;;;6.63;1.10;;;14.90;99.90;;;;;;5012822;28;20971;-75
2022/09/24 09:48:28;;;;;;;8.02;1.30;;;14.80;99.90;;;;;;5030529;28;20421;-74
2022/09/24 09:51:04;;;;;;;8.02;0.98;;;14.80;99.90;;;;;;5030952;28;20420;-75
2022/09/24 09:53:30;;;;;;;10.93;1.63;;;14.80;99.90;;;;;;5029877;28;20433;-76
2022/09/24 09:56:02;;;;;;;12.13;1.40;;;14.80;99.90;;;;;;5048060;28;20787;-75
2022/09/24 09:58:30;;;;;;;9.87;1.00;;;14.80;99.90;;;;;;5048516;28;20756;-75
2022/09/24 10:01:07;;;;;;;7.53;1.20;;;14.90;99.90;;;;;;5030190;28;20479;-74
2022/09/24 10:03:38;;;;;;;14.23;1.60;;;14.90;99.90;;;;;;5048656;28;20532;-73
2022/09/24 10:06:05;;;;;;;7.40;1.20;;;14.90;99.90;;;;;;5029390;28;20441;-74
2022/09/24 10:08:31;;;;;;;7.97;1.10;;;14.90;99.90;;;;;;5045447;28;20421;-73
2022/09/24 10:10:59;;;;;;;9.95;1.00;;;14.80;99.90;;;;;;5047206;28;21828;-74
2022/09/24 10:13:26;;;;;;;9.38;1.33;;;14.80;99.90;;;;;;5031709;28;21114;-73
2022/09/24 10:15:55;;;;;;;7.50;0.90;;;14.80;99.90;;;;;;5047202;28;20981;-74
2022/09/24 10:18:34;;;;;;;7.95;1.25;;;14.80;99.90;;;;;;5053420;28;20571;-75
2022/09/24 10:21:06;;;;;;;10.50;0.90;;;14.80;99.90;;;;;;5047762;28;20768;-74
2022/09/24 10:23:36;;;;;;;7.37;1.33;;;14.80;99.90;;;;;;5048499;28;20406;-74
2022/09/24 10:26:03;;;;;;;9.52;1.38;;;14.80;99.90;;;;;;5037766;28;20800;-75
2022/09/24 10:31:22;;;;;;;10.02;1.08;;;14.80;99.90;;;;;;5057031;28;20430;-75
2022/09/24 10:33:52;;;;;;;7.72;0.88;;;14.80;99.90;;;;;;5058002;28;20413;-75
2022/09/24 10:36:24;;;;;;;8.23;0.82;;;14.80;99.90;;;;;;5056833;28;21210;-75
2022/09/24 10:39:10;;;;;;;7.00;0.82;;;14.80;99.90;;;;;;5050692;28;20413;-75
2022/09/24 10:41:36;;;;;;;7.85;0.88;;;14.70;99.90;;;;;;5030447;28;20492;-75
2022/09/24 10:44:12;;;;;;;6.97;0.90;;;14.70;99.90;;;;;;5030505;28;20504;-75
2022/09/24 10:46:56;;;;;;;7.80;0.95;;;14.70;99.90;;;;;;5045007;28;20407;-75
2022/09/24 10:50:26;;;;;;;8.20;1.10;;;14.70;99.90;;;;;;5041451;28;20417;-73
2022/09/24 10:52:56;;;;;;;6.72;0.80;;;14.80;99.90;;;;;;4986479;28;20517;-73
2022/09/24 10:55:44;;;;;;;6.85;0.80;;;14.80;99.90;;;;;;5035734;28;20508;-73
2022/09/24 10:58:41;;;;;;;5.32;0.80;;;14.90;99.90;;;;;;5030223;28;20508;-74
2022/09/24 11:01:18;;;;;;;7.07;0.77;;;14.90;99.90;;;;;;5034670;28;20414;-74
2022/09/24 11:04:19;;;;;;;6.63;0.75;;;14.90;99.90;;;;;;5065482;28;20411;-75
2022/09/24 11:07:12;;;;;;;9.38;0.80;;;14.90;99.90;;;;;;5013888;28;20461;-74
2022/09/24 11:10:05;;;;;;;4.70;0.80;;;15.00;99.90;;;;;;5058248;28;20413;-75
2022/09/24 11:12:52;;;;;;;5.82;0.93;;;15.00;99.90;;;;;;5042438;28;20496;-75
2022/09/24 11:16:02;;;;;;;10.90;1.05;;;15.00;99.90;;;;;;5043041;28;20444;-74
2022/09/24 11:18:59;;;;;;;8.05;0.80;;;15.00;99.90;;;;;;5041473;28;20986;-76
2022/09/24 11:21:56;;;;;;;8.25;1.08;;;15.00;99.90;;;;;;5055304;28;20487;-75
2022/09/24 11:24:35;;;;;;;7.47;0.70;;;14.90;99.90;;;;;;5048937;28;20422;-75
2022/09/24 11:27:16;;;;;;;7.00;0.90;;;14.90;99.90;;;;;;5058223;28;20415;-74
2022/09/24 11:29:53;;;;;;;4.43;0.70;;;15.00;99.90;;;;;;5051842;28;20444;-74
2022/09/24 11:33:03;;;;;;;7.43;0.80;;;14.90;99.90;;;;;;5037159;28;20440;-75
2022/09/24 11:35:33;;;;;;;4.70;0.60;;;15.00;99.90;;;;;;5055079;28;20566;-75
2022/09/24 11:38:28;;;;;;;5.50;0.60;;;14.90;99.90;;;;;;5052834;28;20498;-74
2022/09/24 11:41:34;;;;;;;7.13;0.90;;;14.90;99.90;;;;;;5050122;28;20424;-74
2022/09/24 11:44:20;;;;;;;7.53;1.27;;;14.90;99.90;;;;;;4970523;28;20457;-75
2022/09/24 11:47:20;;;;;;;7.68;0.80;;;14.80;99.90;;;;;;5051545;28;20448;-74
2022/09/24 11:49:45;;;;;;;5.72;0.68;;;14.80;99.90;;;;;;5041802;28;20528;-75
2022/09/24 11:52:14;;;;;;;5.13;0.70;;;14.80;99.90;;;;;;5051418;28;20858;-75
2022/09/24 11:55:04;;;;;;;7.50;0.80;;;14.80;99.90;;;;;;5051278;28;20459;-74
2022/09/24 11:57:42;;;;;;;5.18;0.80;;;14.80;99.90;;;;;;5049737;28;20455;-74
2022/09/24 12:00:19;;;;;;;5.07;0.90;;;14.80;99.90;;;;;;5038855;28;20432;-74
2022/09/24 12:03:00;;;;;;;6.25;0.88;;;14.80;99.90;;;;;;5016381;28;20975;-74
2022/09/24 12:05:28;;;;;;;7.33;1.10;;;14.70;99.90;;;;;;5049900;28;20425;-73
2022/09/24 12:08:04;;;;;;;5.88;0.73;;;14.80;99.90;;;;;;5049456;28;20520;-73
2022/09/24 12:10:36;;;;;;;7.90;0.85;;;14.70;99.90;;;;;;5049142;28;20439;-73
2022/09/24 12:13:32;;;;;;;6.45;1.00;;;14.70;99.90;;;;;;5030052;28;20453;-74
2022/09/24 12:16:02;;;;;;;8.10;1.17;;;14.70;99.90;;;;;;5039111;28;20452;-74
2022/09/24 12:19:00;;;;;;;7.65;0.98;;;14.70;99.90;;;;;;5050901;28;20401;-74
2022/09/24 12:21:33;;;;;;;6.10;0.80;;;14.80;99.90;;;;;;5049875;28;20421;-74
2022/09/24 12:25:07;;;;;;;5.00;0.60;;;14.70;99.90;;;;;;5032626;28;20429;-74
2022/09/24 12:27:37;;;;;;;5.47;0.60;;;14.80;99.90;;;;;;5019742;28;20941;-75
2022/09/24 12:33:30;;;;;;;5.85;0.80;;;14.70;99.90;;;;;;5043779;28;20488;-74
2022/09/24 12:36:03;;;;;;;7.55;1.00;;;14.70;99.90;;;;;;5033873;28;20444;-74
2022/09/24 12:38:52;;;;;;;6.15;1.00;;;14.70;99.90;;;;;;5049405;28;20995;-74
2022/09/24 12:41:43;;;;;;;4.32;0.68;;;14.60;99.90;;;;;;5050141;28;20874;-74
2022/09/24 12:44:09;;;;;;;7.35;0.80;;;14.60;99.90;;;;;;5050839;28;20463;-74
2022/09/24 12:46:40;;;;;;;5.70;1.10;;;14.60;99.90;;;;;;5050141;28;20862;-74
2022/09/24 12:49:16;;;;;;;8.18;1.02;;;14.60;99.90;;;;;;5032630;28;20413;-74
2022/09/24 12:51:42;;;;;;;8.68;1.23;;;14.50;99.90;;;;;;5032152;28;20436;-75
2022/09/24 12:54:23;;;;;;;6.85;1.05;;;14.60;99.90;;;;;;5061459;28;20400;-75
2022/09/24 12:56:49;;;;;;;8.15;1.08;;;14.60;99.90;;;;;;5048923;28;20413;-74
2022/09/24 12:59:27;;;;;;;5.83;1.20;;;14.50;99.90;;;;;;5050757;28;20933;-74
2022/09/24 13:01:53;;;;;;;7.95;1.10;;;14.50;99.90;;;;;;5042827;28;20417;-75
2022/09/24 13:04:19;;;;;;;8.35;1.05;;;14.60;99.90;;;;;;5050353;28;20480;-73
2022/09/24 13:06:47;;;;;;;6.87;0.90;;;14.60;99.90;;;;;;5050025;28;20432;-73
2022/09/24 13:09:39;;;;;;;6.00;1.10;;;14.60;99.90;;;;;;5031579;28;20777;-73
2022/09/24 13:12:14;;;;;;;6.72;1.00;;;14.70;99.90;;;;;;5032033;28;20503;-75
2022/09/24 13:14:46;;;;;;;10.73;1.70;;;14.70;99.90;;;;;;5031390;28;20409;-74